Izumi Maru No.2 — JD4017 — position and weather

sailwx.info

Track history (hours):
 
Tides and Currents Weather Stations Pressure Air Temp Water Temp Dewpoint Dewpoint Depression Visibility Wind Speed Wind Dir Waves Ship Positions

Izumi Maru No.2

Last reported at 2018-Jul-07 15:55 UTC. Time now 2018-Jul-19 19:28 UTC.
Position N 34°04' E 134°49'.
Warning: this ship's position is 12 days out of date.

Length 76 m.

Type: Cargo ship. MMSI: 431007894.

Date/timePositionNaut miles runAvg speedWind from/ knotsBaromVisibWave heightAir tempDewpointWater temp
2018-Jul-07 15:55N 34°04' E 134°49'241 8.9
2018-Jul-06 12:52N 35°05' E 139°32'411.8
2018-Jul-06 12:30N 35°06' E 139°37'510.9
2018-Jul-06 12:00N 35°09' E 139°43'510.8
2018-Jul-06 11:30N 35°14' E 139°46'710.9
2018-Jul-06 10:54N 35°20' E 139°42'511.5
2018-Jul-06 10:27N 35°25' E 139°43'  
2018-Jul-01 23:48N 35°29' E 139°44'0 0.2
2018-Jul-01 23:29N 35°29' E 139°44'4 7.4
2018-Jul-01 23:00N 35°26' E 139°46'510.6
2018-Jul-01 22:30N 35°21' E 139°45'710.3
2018-Jul-01 21:49N 35°14' E 139°47'411.2
2018-Jul-01 21:26N 35°10' E 139°46'511.2
2018-Jul-01 20:58N 35°05' E 139°43'  
Track history (hours):
 
Tides and Currents Weather Stations Pressure Air Temp Water Temp Dewpoint Dewpoint Depression Visibility Wind Speed Wind Dir Waves Ship Positions

Izumi Maru No.2

Last reported at 2018-Jul-07 15:55 UTC. Time now 2018-Jul-19 19:28 UTC.
Position N 34°04' E 134°49'.
Warning: this ship's position is 12 days out of date.

Length 76 m.

Type: Cargo ship. MMSI: 431007894.

Date/timePositionNaut miles runAvg speedWind from/ knotsBaromVisibWave heightAir tempDewpointWater temp
2018-Jul-07 15:55N 34°04' E 134°49'241 8.9
2018-Jul-06 12:52N 35°05' E 139°32'411.8
2018-Jul-06 12:30N 35°06' E 139°37'510.9
2018-Jul-06 12:00N 35°09' E 139°43'510.8
2018-Jul-06 11:30N 35°14' E 139°46'710.9
2018-Jul-06 10:54N 35°20' E 139°42'511.5
2018-Jul-06 10:27N 35°25' E 139°43'  
2018-Jul-01 23:48N 35°29' E 139°44'0 0.2
2018-Jul-01 23:29N 35°29' E 139°44'4 7.4
2018-Jul-01 23:00N 35°26' E 139°46'510.6
2018-Jul-01 22:30N 35°21' E 139°45'710.3
2018-Jul-01 21:49N 35°14' E 139°47'411.2
2018-Jul-01 21:26N 35°10' E 139°46'511.2
2018-Jul-01 20:58N 35°05' E 139°43'  

Dump ship's entire track history